Terminal Aerodrome Forecast
Issued by NWS Mt. Holly, NJ

Home | Current Version | Previous Version | Text Only | Print | Product List | Glossary On
Versions: 1 2 3 4 5 6 7 8 9 10 11 12 13
000
FTUS41 KPHI 201700
TAFRDG
TAF
KRDG 201740Z 2018/2118 20007KT P6SM SCT060 BKN250
     FM202200 VRB03KT P6SM VCSH BKN040 OVC100
      TEMPO 2023/2103 6SM -SHRA
     FM210500 VRB03KT P6SM BKN050
      TEMPO 2110/2113 6SM BR BKN025
     FM211600 23003KT P6SM BKN050=

USA.gov is the U.S. government's official web portal to all federal, state and local government web resources and services.